Elgin, Illinois
Current Conditions -  °F | °C
As of 1:52 AM on Tuesday 27 Jan 2015 (Local Time) from KDPA Reporting Station
Haze Haze  
Wind Chill: 27°   Ceiling: 1100
Heat Index: 27°   Visibility: 6mi
Dew Point: 24°   Wind: 3mph
Humidity: 89%   Direction: 60°ENE
Pressure: 29.93"   Gusts: NA
Location:  42.04°N, 88.28°W
Report Text: KDPA 270752Z 06003KT 6SM BR OVC011 M03/M04 A2993 RMK AO2 SLP145 T10281044
Loading
Personal Weather Stations






























Interactive Weather Map New forecast layout! Learn more

10-Day Weather Forecast

Advertisements
Track Severe Weather on mobile